Terminal Aerodrome Forecast
Issued by NWS

Home | Current Version | Previous Version | Text Only | Print | Product List | Glossary On
Versions: 1 2 3 4 5 6 7 8 9 10 11 12 13 14 15 16 17 18 19 20 21 22
996
FTUS41 KBTV 112331
TAFMPV
TAF
KMPV 112331Z 1200/1224 30010G18KT P6SM SCT020 OVC040
      TEMPO 1200/1204 3SM -SHSN OVC020
     FM120600 31007KT P6SM OVC050
     FM121100 VRB03KT P6SM BKN140
     FM121500 20005KT P6SM SCT045
     FM121800 20007KT P6SM BKN040=

USA.gov is the U.S. government's official web portal to all federal, state and local government web resources and services.